National Weather Service Raw Text Product

Displaying AFOS PIL: TAFFOD Received: 2018-12-06 17:25 UTC


823 
FTUS43 KDMX 061725
TAFFOD
TAF
KFOD 061725Z 0618/0718 34007KT P6SM SCT019
     FM070500 VRB03KT P6SM SCT019
     FM071000 22006KT P6SM SCT019 BKN035=